createdAt,value
2022-10-16T00:01:54.258Z,3.29
2022-10-16T00:04:20.680Z,8.98
2022-10-16T00:06:47.120Z,15.60
2022-10-16T00:09:13.525Z,18.41
2022-10-16T00:11:41.033Z,22.51
2022-10-16T00:14:09.640Z,23.84
2022-10-16T00:16:36.038Z,27.09
2022-10-16T00:19:02.594Z,31.89
2022-10-16T00:21:29.761Z,32.77
2022-10-16T00:24:01.220Z,34.41
2022-10-16T00:26:28.236Z,37.37
2022-10-16T00:28:54.678Z,37.61
2022-10-16T00:31:22.611Z,39.56
2022-10-16T00:33:49.168Z,43.43
2022-10-16T00:36:17.791Z,46.05
2022-10-16T00:38:44.252Z,51.76
2022-10-16T00:41:12.902Z,55.13
2022-10-16T00:43:43.955Z,58.09
2022-10-16T00:46:32.073Z,38.58
2022-10-16T00:49:01.011Z,41.51
2022-10-16T00:51:31.725Z,45.78
2022-10-16T00:53:58.168Z,46.96
2022-10-16T00:56:24.561Z,54.20
2022-10-16T00:58:50.970Z,62.31
2022-10-16T01:01:17.457Z,65.95
2022-10-16T01:03:44.025Z,63.72
2022-10-16T01:06:11.296Z,65.29
2022-10-16T01:09:05.572Z,63.79
2022-10-16T01:11:58.191Z,62.54
2022-10-16T01:15:07.883Z,66.80
2022-10-16T01:17:35.936Z,68.03
2022-10-16T01:20:08.381Z,67.33
2022-10-16T01:22:40.185Z,66.52
2022-10-16T01:25:08.861Z,66.12
2022-10-16T01:27:35.662Z,64.78
2022-10-16T01:30:03.578Z,66.63
2022-10-16T01:32:58.091Z,63.50
2022-10-16T01:35:27.150Z,59.80
2022-10-16T01:38:02.725Z,56.24
2022-10-16T01:40:29.175Z,52.95
2022-10-16T01:43:02.066Z,52.15
2022-10-16T01:45:28.917Z,51.21
2022-10-16T01:47:55.269Z,51.64
2022-10-16T01:50:21.772Z,49.87
2022-10-16T01:52:50.568Z,48.27
2022-10-16T01:55:20.356Z,46.50
2022-10-16T01:57:47.514Z,45.26
2022-10-16T02:00:14.387Z,42.52
2022-10-16T02:02:45.889Z,40.82
2022-10-16T02:05:17.466Z,38.93
2022-10-16T02:07:43.887Z,39.11
2022-10-16T02:10:10.367Z,40.58
2022-10-16T02:12:40.332Z,39.58
2022-10-16T02:15:07.573Z,37.05
2022-10-16T02:17:33.956Z,34.02
2022-10-16T02:20:00.384Z,31.39
2022-10-16T02:22:44.075Z,31.66
2022-10-16T02:25:18.726Z,28.81
2022-10-16T02:27:57.382Z,26.78
2022-10-16T02:30:32.907Z,25.69
2022-10-16T02:33:00.064Z,23.59
2022-10-16T02:35:26.511Z,22.13
2022-10-16T02:37:52.925Z,19.90
2022-10-16T02:40:21.592Z,17.50
2022-10-16T02:42:52.554Z,16.48
2022-10-16T02:45:19.129Z,14.59
2022-10-16T02:47:45.530Z,12.94
2022-10-16T02:50:12.047Z,10.81
2022-10-16T02:52:38.428Z,10.94
2022-10-16T02:55:05.266Z,11.72
2022-10-16T02:57:32.782Z,11.30
2022-10-16T02:59:59.496Z,10.84
2022-10-16T03:02:26.438Z,10.32
2022-10-16T03:04:52.848Z,12.17
2022-10-16T03:07:19.200Z,12.26
2022-10-16T03:09:45.588Z,11.98
2022-10-16T03:12:13.014Z,11.23
2022-10-16T03:14:40.793Z,10.84
2022-10-16T03:17:07.420Z,11.33
2022-10-16T03:19:33.793Z,11.76
2022-10-16T03:22:00.159Z,12.85
2022-10-16T03:24:26.533Z,13.92
2022-10-16T03:26:52.894Z,15.28
2022-10-16T03:29:19.287Z,14.64
2022-10-16T03:31:45.729Z,13.55
2022-10-16T03:34:12.114Z,12.80
2022-10-16T03:36:38.526Z,13.26
2022-10-16T03:39:04.895Z,15.43
2022-10-16T03:41:31.427Z,17.79
2022-10-16T03:43:57.797Z,22.09
2022-10-16T03:46:24.223Z,23.49
2022-10-16T03:48:50.603Z,24.84
2022-10-16T03:51:17.002Z,27.13
2022-10-16T03:53:43.360Z,28.14
2022-10-16T03:56:09.743Z,30.01
2022-10-16T03:58:36.115Z,28.76
2022-10-16T04:01:02.559Z,30.74
2022-10-16T04:03:29.015Z,33.11
2022-10-16T04:05:55.500Z,34.95
2022-10-16T04:08:22.013Z,38.76
2022-10-16T04:10:48.421Z,41.38
2022-10-16T04:13:14.900Z,42.25
2022-10-16T04:15:41.411Z,46.57
2022-10-16T04:18:07.870Z,46.24
2022-10-16T04:20:34.619Z,50.31
2022-10-16T04:23:01.190Z,57.04
2022-10-16T04:25:27.621Z,50.40
2022-10-16T04:27:54.877Z,48.23
2022-10-16T04:30:21.843Z,48.18
2022-10-16T04:32:50.457Z,49.29
2022-10-16T04:35:18.003Z,49.08
2022-10-16T04:37:44.391Z,51.70
2022-10-16T04:40:10.843Z,54.99
2022-10-16T04:42:37.306Z,55.57
2022-10-16T04:45:05.063Z,62.96
2022-10-16T04:47:31.746Z,73.28
2022-10-16T04:49:58.142Z,82.80
2022-10-16T04:52:25.955Z,87.23
2022-10-16T04:54:52.529Z,100.00
2022-10-16T04:57:18.915Z,100.00
2022-10-16T04:59:45.370Z,100.00
2022-10-16T05:02:11.818Z,100.00
2022-10-16T05:04:38.186Z,100.00
2022-10-16T05:07:04.547Z,100.00
2022-10-16T05:09:30.920Z,100.00
2022-10-16T05:11:57.295Z,100.00
2022-10-16T05:14:23.743Z,100.00
2022-10-16T05:16:50.327Z,100.00
2022-10-16T05:19:32.117Z,100.00
2022-10-16T05:21:58.550Z,100.00
2022-10-16T05:24:24.971Z,100.00
2022-10-16T05:26:51.474Z,100.00
2022-10-16T05:29:17.896Z,100.00
2022-10-16T05:31:44.350Z,100.00
2022-10-16T05:34:10.752Z,100.00
2022-10-16T05:36:37.191Z,100.00
2022-10-16T05:39:03.886Z,100.00
2022-10-16T05:41:30.281Z,100.00
2022-10-16T05:43:56.709Z,100.00
2022-10-16T05:46:23.098Z,100.00
2022-10-16T05:48:49.488Z,100.00
2022-10-16T05:51:16.284Z,100.00
2022-10-16T05:56:10.530Z,100.00
2022-10-16T05:58:37.632Z,100.00
2022-10-16T06:01:12.003Z,100.00
2022-10-16T06:03:38.498Z,100.00
2022-10-16T06:06:17.767Z,100.00
2022-10-16T06:08:44.559Z,100.00
2022-10-16T06:11:13.006Z,100.00
2022-10-16T06:13:42.059Z,100.00
2022-10-16T06:16:08.477Z,100.00
2022-10-16T06:18:34.871Z,100.00
2022-10-16T06:21:05.592Z,100.00
2022-10-16T06:23:32.492Z,100.00
2022-10-16T06:26:09.182Z,100.00
2022-10-16T06:28:35.731Z,100.00
2022-10-16T06:31:05.767Z,100.00
2022-10-16T06:33:34.692Z,100.00
2022-10-16T06:36:05.111Z,100.00
2022-10-16T06:38:31.772Z,100.00
2022-10-16T06:40:58.268Z,100.00
2022-10-16T06:43:24.760Z,100.00
2022-10-16T06:45:55.425Z,100.00
2022-10-16T06:48:22.115Z,100.00
2022-10-16T06:51:02.164Z,100.00
2022-10-16T06:53:36.062Z,100.00
2022-10-16T06:56:14.028Z,100.00
2022-10-16T06:58:40.605Z,100.00
2022-10-16T07:01:07.100Z,100.00
2022-10-16T07:03:33.570Z,100.00
2022-10-16T07:06:04.381Z,100.00
2022-10-16T07:08:34.795Z,100.00
2022-10-16T07:11:06.745Z,100.00
2022-10-16T07:13:36.847Z,100.00
2022-10-16T07:16:13.434Z,100.00
2022-10-16T07:18:41.187Z,100.00
2022-10-16T07:21:12.370Z,100.00
2022-10-16T07:23:39.001Z,100.00
2022-10-16T07:26:05.562Z,100.00
2022-10-16T07:28:33.107Z,100.00
2022-10-16T07:31:07.932Z,100.00
2022-10-16T07:33:34.869Z,100.00
2022-10-16T07:36:01.291Z,100.00
2022-10-16T07:38:27.700Z,96.54
2022-10-16T07:41:05.526Z,90.76
2022-10-16T07:43:32.030Z,83.73
2022-10-16T07:46:00.164Z,72.49
2022-10-16T07:48:30.694Z,60.60
2022-10-16T07:51:05.209Z,54.01
2022-10-16T07:53:31.891Z,44.98
2022-10-16T07:56:05.646Z,36.60
2022-10-16T07:58:32.150Z,29.34
2022-10-16T08:00:58.784Z,20.78
2022-10-16T08:03:25.834Z,16.84
2022-10-16T08:05:52.343Z,8.08
2022-10-16T08:08:18.943Z,7.91
2022-10-16T08:10:45.458Z,12.15
2022-10-16T08:13:11.928Z,13.00
2022-10-16T08:15:38.347Z,12.20
2022-10-16T08:18:05.527Z,12.13
2022-10-16T08:20:32.598Z,11.99
2022-10-16T08:23:00.184Z,11.65
2022-10-16T08:25:26.843Z,10.57
2022-10-16T08:27:53.215Z,10.17
2022-10-16T08:30:20.485Z,9.01
2022-10-16T08:32:47.011Z,8.24
2022-10-16T08:35:13.708Z,7.73
2022-10-16T08:37:40.124Z,8.26
2022-10-16T08:40:07.594Z,8.18
2022-10-16T08:42:46.192Z,8.15
2022-10-16T08:45:24.718Z,7.13
2022-10-16T08:48:13.063Z,6.41
2022-10-16T08:50:39.983Z,6.06
2022-10-16T08:53:07.190Z,5.69
2022-10-16T08:55:43.752Z,5.17
2022-10-16T08:58:18.087Z,4.72
2022-10-16T09:00:46.745Z,3.77
2022-10-16T09:03:22.345Z,3.45
2022-10-16T09:05:58.740Z,3.37
2022-10-16T09:08:25.212Z,4.21
2022-10-16T09:11:36.847Z,5.25
2022-10-16T09:14:23.487Z,5.05
2022-10-16T09:17:34.953Z,6.50
2022-10-16T09:20:28.952Z,6.60
2022-10-16T09:23:19.481Z,8.82
2022-10-16T09:25:49.162Z,10.21
2022-10-16T09:28:16.378Z,7.08
2022-10-16T09:30:42.846Z,4.84
2022-10-16T09:33:10.375Z,4.97
2022-10-16T09:35:47.031Z,5.61
2022-10-16T09:38:29.467Z,6.93
2022-10-16T09:40:59.373Z,6.05
2022-10-16T09:43:34.779Z,7.83
2022-10-16T09:46:03.121Z,11.01
2022-10-16T09:48:34.778Z,12.81
2022-10-16T09:51:02.708Z,14.08
2022-10-16T09:53:48.593Z,18.08
2022-10-16T09:56:26.960Z,18.53
2022-10-16T09:58:55.090Z,19.75
2022-10-16T10:01:22.202Z,18.96
2022-10-16T10:03:49.330Z,23.32
2022-10-16T10:06:24.786Z,18.99
2022-10-16T10:09:16.181Z,13.61
2022-10-16T10:11:47.124Z,9.10
2022-10-16T10:14:21.128Z,11.95
2022-10-16T10:16:47.933Z,12.65
2022-10-16T10:19:15.835Z,8.70
2022-10-16T10:21:43.011Z,10.31
2022-10-16T10:24:16.567Z,12.77
2022-10-16T10:26:50.501Z,18.33
2022-10-16T10:29:19.573Z,17.34
2022-10-16T10:32:05.158Z,21.54
2022-10-16T10:34:34.526Z,18.52
2022-10-16T10:37:05.634Z,15.61
2022-10-16T10:39:44.726Z,11.74
2022-10-16T10:42:23.665Z,19.73
2022-10-16T10:45:24.751Z,50.47
2022-10-16T10:48:22.222Z,77.75
2022-10-16T10:50:59.238Z,86.39
2022-10-16T10:53:30.273Z,100.00
2022-10-16T10:56:15.441Z,100.00
2022-10-16T10:59:00.733Z,100.00
2022-10-16T11:01:43.494Z,100.00
2022-10-16T11:04:40.969Z,100.00
2022-10-16T11:07:12.720Z,100.00
2022-10-16T11:09:42.063Z,100.00
2022-10-16T11:12:47.021Z,100.00
2022-10-16T11:15:19.477Z,100.00
2022-10-16T11:17:49.349Z,100.00
2022-10-16T11:20:17.653Z,100.00
2022-10-16T11:22:46.012Z,100.00
2022-10-16T11:25:28.307Z,100.00
2022-10-16T11:28:17.546Z,100.00
2022-10-16T11:31:13.096Z,100.00
2022-10-16T11:33:49.952Z,100.00
2022-10-16T11:37:01.438Z,100.00
2022-10-16T11:39:31.101Z,100.00
2022-10-16T11:42:05.478Z,100.00
2022-10-16T11:45:08.976Z,100.00
2022-10-16T11:47:58.198Z,100.00
2022-10-16T11:50:41.897Z,100.00
2022-10-16T11:53:15.812Z,100.00
2022-10-16T11:55:46.156Z,100.00
2022-10-16T11:58:16.631Z,100.00
2022-10-16T12:00:48.210Z,100.00
2022-10-16T12:03:50.622Z,100.00
2022-10-16T12:06:31.129Z,100.00
2022-10-16T12:08:58.734Z,100.00
2022-10-16T12:11:38.782Z,100.00
2022-10-16T12:14:14.325Z,100.00
2022-10-16T12:17:00.558Z,100.00
2022-10-16T12:19:28.843Z,100.00
2022-10-16T12:21:57.534Z,100.00
2022-10-16T12:24:59.418Z,100.00
2022-10-16T12:27:32.638Z,100.00
2022-10-16T12:30:00.639Z,100.00
2022-10-16T12:32:53.160Z,100.00
2022-10-16T12:35:24.547Z,100.00
2022-10-16T12:37:50.940Z,100.00
2022-10-16T12:40:26.435Z,100.00
2022-10-16T12:42:52.887Z,100.00
2022-10-16T12:45:32.407Z,100.00
2022-10-16T12:48:00.504Z,100.00
2022-10-16T12:50:35.725Z,100.00
2022-10-16T12:53:02.834Z,100.00
2022-10-16T12:55:34.857Z,100.00
2022-10-16T12:58:23.072Z,100.00
2022-10-16T13:00:59.176Z,100.00
2022-10-16T13:03:28.717Z,100.00
2022-10-16T13:06:16.304Z,100.00
2022-10-16T13:08:51.803Z,100.00
2022-10-16T13:11:54.144Z,100.00
2022-10-16T13:14:44.924Z,100.00
2022-10-16T13:17:39.055Z,100.00
2022-10-16T13:20:20.080Z,100.00
2022-10-16T13:23:01.959Z,100.00
2022-10-16T13:25:43.676Z,100.00
2022-10-16T13:28:11.377Z,100.00
2022-10-16T13:30:45.085Z,100.00
2022-10-16T13:33:19.207Z,100.00
2022-10-16T13:35:56.011Z,100.00
2022-10-16T13:38:24.174Z,100.00
2022-10-16T13:40:53.665Z,100.00
2022-10-16T13:43:21.664Z,100.00
2022-10-16T13:45:58.766Z,100.00
2022-10-16T13:48:25.244Z,100.00
2022-10-16T13:51:07.765Z,100.00
2022-10-16T13:53:35.263Z,100.00
2022-10-16T13:56:03.871Z,100.00
2022-10-16T13:58:30.292Z,100.00
2022-10-16T14:01:04.393Z,100.00
2022-10-16T14:03:30.813Z,100.00
2022-10-16T14:06:02.133Z,100.00
2022-10-16T14:08:28.997Z,100.00
2022-10-16T14:10:57.967Z,100.00
2022-10-16T14:13:37.514Z,100.00
2022-10-16T14:16:08.080Z,100.00
2022-10-16T14:18:35.845Z,100.00
2022-10-16T14:21:13.410Z,100.00
2022-10-16T14:23:41.343Z,100.00
2022-10-16T14:26:10.737Z,100.00
2022-10-16T14:28:37.961Z,100.00
2022-10-16T14:31:20.877Z,100.00
2022-10-16T14:33:47.260Z,100.00
2022-10-16T14:36:14.778Z,100.00
2022-10-16T14:38:50.994Z,100.00
2022-10-16T14:41:17.410Z,100.00
2022-10-16T14:43:46.415Z,100.00
2022-10-16T14:46:16.998Z,100.00
2022-10-16T14:48:44.078Z,100.00
2022-10-16T14:51:17.559Z,100.00
2022-10-16T14:53:44.049Z,100.00
2022-10-16T14:56:16.006Z,100.00
2022-10-16T14:58:42.398Z,100.00
2022-10-16T15:01:11.861Z,100.00
2022-10-16T15:03:41.823Z,100.00
2022-10-16T15:06:15.270Z,100.00
2022-10-16T15:08:41.874Z,100.00
2022-10-16T15:11:13.876Z,100.00
2022-10-16T15:13:40.487Z,100.00
2022-10-16T15:16:11.512Z,100.00
2022-10-16T15:18:37.885Z,100.00
2022-10-16T15:21:04.411Z,100.00
2022-10-16T15:23:30.785Z,100.00
2022-10-16T15:25:57.409Z,100.00
2022-10-16T15:28:24.619Z,100.00
2022-10-16T15:30:51.943Z,100.00
2022-10-16T15:33:19.863Z,100.00
2022-10-16T15:35:50.116Z,100.00
2022-10-16T15:38:16.848Z,100.00
2022-10-16T15:40:43.248Z,100.00
2022-10-16T15:43:09.915Z,100.00
2022-10-16T15:45:36.292Z,100.00
2022-10-16T15:48:02.724Z,100.00
2022-10-16T15:50:29.101Z,100.00
2022-10-16T15:52:55.513Z,100.00
2022-10-16T15:55:21.906Z,100.00
2022-10-16T15:57:48.337Z,100.00
2022-10-16T16:00:16.990Z,100.00
2022-10-16T16:02:43.470Z,91.88
2022-10-16T16:05:10.537Z,92.33
2022-10-16T16:07:37.165Z,85.39
2022-10-16T16:10:05.333Z,81.21
2022-10-16T16:12:31.879Z,77.87
2022-10-16T16:15:00.770Z,76.48
2022-10-16T16:17:31.560Z,75.90
2022-10-16T16:19:58.233Z,70.49
2022-10-16T16:22:24.908Z,69.85
2022-10-16T16:24:51.324Z,71.84
2022-10-16T16:27:17.747Z,72.08
2022-10-16T16:29:44.114Z,70.86
2022-10-16T16:32:10.573Z,68.80
2022-10-16T16:34:37.076Z,68.12
2022-10-16T16:37:03.459Z,65.63
2022-10-16T16:39:29.917Z,65.84
2022-10-16T16:41:57.668Z,62.95
2022-10-16T16:44:24.086Z,63.14
2022-10-16T16:46:50.549Z,61.54
2022-10-16T16:49:17.042Z,64.24
2022-10-16T16:51:43.520Z,51.60
2022-10-16T16:54:10.807Z,28.38
2022-10-16T16:56:37.244Z,25.41
2022-10-16T16:59:03.827Z,17.63
2022-10-16T17:01:30.290Z,18.78
2022-10-16T17:03:57.185Z,18.16
2022-10-16T17:06:26.143Z,18.90
2022-10-16T17:08:52.543Z,12.75
2022-10-16T17:11:21.177Z,9.12
2022-10-16T17:13:49.936Z,8.39
2022-10-16T17:16:19.062Z,10.85
2022-10-16T17:18:45.434Z,8.72
2022-10-16T17:21:11.835Z,9.23
2022-10-16T17:23:38.689Z,8.23
2022-10-16T17:26:15.511Z,5.44
2022-10-16T17:28:42.518Z,1.06
2022-10-16T17:33:37.227Z,0.00
2022-10-16T17:36:04.523Z,0.00
2022-10-16T17:38:30.902Z,0.32
2022-10-16T17:40:57.335Z,0.00
2022-10-16T17:43:23.748Z,0.00
2022-10-16T17:45:50.277Z,0.00
2022-10-16T17:48:16.661Z,0.00
2022-10-16T17:50:43.308Z,0.00
2022-10-16T17:53:09.802Z,0.00
2022-10-16T17:55:40.228Z,0.00
2022-10-16T17:58:06.666Z,0.00
2022-10-16T18:00:33.597Z,1.42
2022-10-16T18:03:00.082Z,0.43
2022-10-16T18:05:26.467Z,0.72
2022-10-16T18:07:53.148Z,0.00
2022-10-16T18:10:21.153Z,0.00
2022-10-16T18:12:47.743Z,0.00
2022-10-16T18:15:14.158Z,0.00
2022-10-16T18:17:40.941Z,0.00
2022-10-16T18:20:07.728Z,0.00
2022-10-16T18:22:37.564Z,0.00
2022-10-16T18:25:05.157Z,0.00
2022-10-16T18:27:32.265Z,0.00
2022-10-16T18:29:59.907Z,0.00
2022-10-16T18:32:27.296Z,0.00
2022-10-16T18:34:54.378Z,0.00
2022-10-16T18:37:21.247Z,0.00
2022-10-16T18:39:50.589Z,0.00
2022-10-16T18:42:17.311Z,0.00
2022-10-16T18:44:44.139Z,0.00
2022-10-16T18:47:11.020Z,0.00
2022-10-16T18:49:37.499Z,0.00
2022-10-16T18:52:04.137Z,0.00
2022-10-16T18:54:30.840Z,0.00
2022-10-16T18:56:57.315Z,0.00
2022-10-16T18:59:23.853Z,0.00
2022-10-16T19:01:50.376Z,0.00
2022-10-16T19:04:17.024Z,0.00
2022-10-16T19:06:45.678Z,0.00
2022-10-16T19:09:12.603Z,0.00
2022-10-16T19:11:41.541Z,0.00
2022-10-16T19:14:08.133Z,0.00
2022-10-16T19:16:35.229Z,0.00
2022-10-16T19:19:03.437Z,0.00
2022-10-16T19:21:30.044Z,0.00
2022-10-16T19:24:00.908Z,0.00
2022-10-16T19:26:28.131Z,0.00
2022-10-16T19:28:55.485Z,0.00
2022-10-16T19:31:22.619Z,0.00
2022-10-16T19:33:52.983Z,0.00
2022-10-16T19:36:23.208Z,0.00
2022-10-16T19:38:55.781Z,0.00
2022-10-16T19:41:23.618Z,0.00
2022-10-16T19:43:50.075Z,0.00
2022-10-16T19:46:18.461Z,0.00
2022-10-16T19:48:45.061Z,0.00
2022-10-16T19:51:12.783Z,0.00
2022-10-16T19:53:39.315Z,0.00
2022-10-16T19:56:19.146Z,0.00
2022-10-16T19:58:45.952Z,0.00
2022-10-16T20:01:13.083Z,0.00
2022-10-16T20:03:40.326Z,0.00
2022-10-16T20:06:07.673Z,0.00
2022-10-16T20:08:34.854Z,0.00
2022-10-16T20:11:01.472Z,0.00
2022-10-16T20:13:28.003Z,0.00
2022-10-16T20:15:54.473Z,0.00
2022-10-16T20:18:21.030Z,0.00
2022-10-16T20:20:52.261Z,0.00
2022-10-16T20:23:18.945Z,0.00
2022-10-16T20:25:45.445Z,0.00
2022-10-16T20:28:13.769Z,0.00
2022-10-16T20:30:42.218Z,0.00
2022-10-16T20:33:08.818Z,0.00
2022-10-16T20:35:39.366Z,0.00
2022-10-16T20:38:05.800Z,0.00
2022-10-16T20:40:36.100Z,0.00
2022-10-16T20:43:02.957Z,0.00
2022-10-16T20:45:29.546Z,0.00
2022-10-16T20:47:55.980Z,0.00
2022-10-16T20:50:22.375Z,0.00
2022-10-16T20:55:20.089Z,0.00
2022-10-16T20:57:46.456Z,0.00
2022-10-16T21:00:13.395Z,0.00
2022-10-16T21:02:39.773Z,0.00
2022-10-16T21:05:06.519Z,0.00
2022-10-16T21:07:32.902Z,0.00
2022-10-16T21:09:59.303Z,0.00
2022-10-16T21:12:26.150Z,0.00
2022-10-16T21:15:13.231Z,0.00
2022-10-16T21:17:39.407Z,0.00
2022-10-16T21:20:06.145Z,0.00
2022-10-16T21:22:32.531Z,0.00
2022-10-16T21:24:58.961Z,0.00
2022-10-16T21:27:25.343Z,0.00
2022-10-16T21:29:53.289Z,0.00
2022-10-16T21:32:20.988Z,0.00
2022-10-16T21:34:48.066Z,0.00
2022-10-16T21:37:14.534Z,0.00
2022-10-16T21:39:41.101Z,0.00
2022-10-16T21:42:07.500Z,0.00
2022-10-16T21:44:33.873Z,0.00
2022-10-16T21:47:00.288Z,0.00
2022-10-16T21:49:26.695Z,0.00
2022-10-16T21:51:53.078Z,0.00
2022-10-16T21:54:21.881Z,0.00
2022-10-16T21:56:48.263Z,11.40
2022-10-16T21:59:15.038Z,15.62
2022-10-16T22:01:41.874Z,17.02
2022-10-16T22:04:12.700Z,12.44
2022-10-16T22:06:39.187Z,17.83
2022-10-16T22:09:05.597Z,23.78
2022-10-16T22:11:36.760Z,29.06
2022-10-16T22:14:11.590Z,22.73
2022-10-16T22:16:38.310Z,21.74
2022-10-16T22:19:07.102Z,27.29
2022-10-16T22:21:37.678Z,31.36
2022-10-16T22:24:04.883Z,36.92
2022-10-16T22:26:31.262Z,52.09
2022-10-16T22:28:57.735Z,80.83
2022-10-16T22:31:24.190Z,95.78
2022-10-16T22:34:02.124Z,100.00
2022-10-16T22:36:28.563Z,100.00
2022-10-16T22:38:55.072Z,100.00
2022-10-16T22:41:21.582Z,100.00
2022-10-16T22:43:48.982Z,100.00
2022-10-16T22:46:19.064Z,100.00
2022-10-16T22:48:45.630Z,100.00
2022-10-16T22:51:16.569Z,100.00
2022-10-16T22:53:44.079Z,100.00
2022-10-16T22:56:10.846Z,100.00
2022-10-16T22:58:37.283Z,100.00
2022-10-16T23:01:09.433Z,100.00
2022-10-16T23:03:35.802Z,100.00
2022-10-16T23:06:03.972Z,100.00
2022-10-16T23:08:30.332Z,100.00
2022-10-16T23:11:00.778Z,100.00
2022-10-16T23:13:27.244Z,100.00
2022-10-16T23:15:53.752Z,100.00
2022-10-16T23:18:20.139Z,100.00
2022-10-16T23:20:46.520Z,100.00
2022-10-16T23:23:12.891Z,100.00
2022-10-16T23:25:47.496Z,100.00
2022-10-16T23:30:42.043Z,100.00
2022-10-16T23:33:08.431Z,100.00
2022-10-16T23:35:34.814Z,100.00
2022-10-16T23:38:01.189Z,100.00
2022-10-16T23:40:27.545Z,100.00
2022-10-16T23:42:53.963Z,100.00
2022-10-16T23:45:20.343Z,100.00
2022-10-16T23:47:46.720Z,100.00
2022-10-16T23:50:13.081Z,100.00
2022-10-16T23:52:39.446Z,100.00
2022-10-16T23:55:06.066Z,100.00
2022-10-16T23:57:32.538Z,100.00
2022-10-16T23:59:58.897Z,100.00
